createdAt,value
2023-01-08T00:02:29.613Z,145.9
2023-01-08T00:07:29.608Z,115.9
2023-01-08T00:12:28.699Z,102.1
2023-01-08T00:17:29.531Z,89.0
2023-01-08T00:22:29.877Z,126.5
2023-01-08T00:27:29.686Z,148.5
2023-01-08T00:32:29.505Z,125.9
2023-01-08T00:37:29.502Z,215.6
2023-01-08T00:42:29.476Z,132.4
2023-01-08T00:47:29.448Z,171.3
2023-01-08T00:52:29.547Z,232.6
2023-01-08T00:57:29.355Z,106.3
2023-01-08T01:02:29.429Z,119.8
2023-01-08T01:07:29.437Z,152.0
2023-01-08T01:12:29.325Z,137.4
2023-01-08T01:17:29.415Z,124.3
2023-01-08T01:22:29.406Z,122.5
2023-01-08T01:27:29.382Z,106.6
2023-01-08T01:32:29.381Z,111.2
2023-01-08T01:37:28.632Z,103.5
2023-01-08T01:42:28.467Z,92.4
2023-01-08T01:47:28.472Z,92.6
2023-01-08T01:52:28.482Z,81.2
2023-01-08T01:57:28.660Z,82.3
2023-01-08T02:02:28.558Z,84.0
2023-01-08T02:07:28.523Z,84.2
2023-01-08T02:12:28.631Z,86.4
2023-01-08T02:17:28.595Z,84.9
2023-01-08T02:22:28.431Z,78.6
2023-01-08T02:27:28.647Z,74.8
2023-01-08T02:32:28.465Z,84.4
2023-01-08T02:37:28.424Z,87.3
2023-01-08T02:42:28.574Z,87.8
2023-01-08T02:47:28.386Z,82.4
2023-01-08T02:52:28.408Z,87.3
2023-01-08T02:57:28.544Z,79.5
2023-01-08T03:02:28.409Z,89.1
2023-01-08T03:07:28.383Z,75.6
2023-01-08T03:12:28.495Z,77.7
2023-01-08T03:17:28.310Z,74.7
2023-01-08T03:22:28.306Z,75.0
2023-01-08T03:27:28.547Z,75.0
2023-01-08T03:32:28.318Z,68.2
2023-01-08T03:37:28.404Z,70.5
2023-01-08T03:42:28.398Z,71.1
2023-01-08T03:47:28.320Z,65.7
2023-01-08T03:52:28.240Z,71.0
2023-01-08T03:57:28.639Z,55.6
2023-01-08T04:02:28.685Z,57.2
2023-01-08T04:07:28.416Z,62.7
2023-01-08T04:12:28.262Z,55.1
2023-01-08T04:17:28.509Z,47.0
2023-01-08T04:22:28.534Z,53.4
2023-01-08T04:27:28.197Z,50.0
2023-01-08T04:32:28.450Z,58.8
2023-01-08T04:37:28.580Z,60.9
2023-01-08T04:42:28.167Z,53.5
2023-01-08T04:47:28.197Z,55.8
2023-01-08T04:52:28.192Z,43.3
2023-01-08T04:57:28.511Z,49.0
2023-01-08T05:02:28.387Z,39.7
2023-01-08T05:07:28.234Z,46.5
2023-01-08T05:12:28.297Z,50.0
2023-01-08T05:17:28.147Z,51.3
2023-01-08T05:22:28.106Z,50.7
2023-01-08T05:27:28.206Z,63.4
2023-01-08T05:32:28.106Z,59.6
2023-01-08T05:37:28.064Z,56.7
2023-01-08T05:42:28.417Z,65.6
2023-01-08T05:47:28.106Z,53.1
2023-01-08T05:52:28.070Z,52.8
2023-01-08T05:57:28.198Z,61.7
2023-01-08T06:02:28.093Z,54.4
2023-01-08T06:07:28.010Z,60.6
2023-01-08T06:12:28.181Z,55.8
2023-01-08T06:17:28.038Z,69.0
2023-01-08T06:22:28.012Z,50.9
2023-01-08T06:27:28.515Z,56.9
2023-01-08T06:32:27.958Z,46.3
2023-01-08T06:37:27.983Z,53.1
2023-01-08T06:42:29.018Z,58.5
2023-01-08T06:47:27.982Z,100.7
2023-01-08T06:52:27.941Z,51.1
2023-01-08T06:57:28.274Z,49.4
2023-01-08T07:02:28.057Z,46.9
2023-01-08T07:07:27.880Z,45.2
2023-01-08T07:12:28.133Z,44.9
2023-01-08T07:17:27.921Z,42.7
2023-01-08T07:22:27.901Z,44.9
2023-01-08T07:27:27.971Z,39.7
2023-01-08T07:32:27.885Z,46.1
2023-01-08T07:37:27.868Z,46.1
2023-01-08T07:42:28.078Z,45.9
2023-01-08T07:47:27.930Z,46.0
2023-01-08T07:52:28.030Z,44.7
2023-01-08T07:57:27.996Z,55.8
2023-01-08T08:02:27.990Z,64.4
2023-01-08T08:07:28.151Z,70.8
2023-01-08T08:12:28.073Z,71.1
2023-01-08T08:17:27.897Z,74.7
2023-01-08T08:22:28.774Z,75.6
2023-01-08T08:27:28.890Z,110.3
2023-01-08T08:32:28.547Z,124.4
2023-01-08T08:37:28.608Z,118.5
2023-01-08T08:42:27.763Z,130.1
2023-01-08T08:47:27.862Z,97.6
2023-01-08T08:52:28.065Z,88.9
2023-01-08T08:57:27.696Z,73.9
2023-01-08T09:02:28.860Z,95.1
2023-01-08T09:07:28.083Z,116.9
2023-01-08T09:12:28.693Z,86.0
2023-01-08T09:17:28.390Z,272.9
2023-01-08T09:22:28.578Z,270.7
2023-01-08T09:27:29.080Z,211.7
2023-01-08T09:32:29.476Z,157.9
2023-01-08T09:37:29.278Z,79.6
2023-01-08T09:42:31.518Z,66.7
2023-01-08T09:47:32.578Z,75.0
2023-01-08T09:52:30.563Z,78.4
2023-01-08T09:57:27.660Z,57.1
2023-01-08T10:02:27.784Z,66.2
2023-01-08T10:07:27.842Z,61.1
2023-01-08T10:12:27.561Z,67.4
2023-01-08T10:17:27.689Z,98.6
2023-01-08T10:22:27.507Z,62.3
2023-01-08T10:27:28.368Z,55.5
2023-01-08T10:32:28.421Z,144.5
2023-01-08T10:37:27.512Z,101.2
2023-01-08T10:42:28.827Z,89.7
2023-01-08T10:47:27.705Z,50.7
2023-01-08T10:52:28.777Z,32.7
2023-01-08T10:57:27.536Z,35.3
2023-01-08T11:02:27.569Z,32.5
2023-01-08T11:07:27.495Z,32.9
2023-01-08T11:12:27.478Z,34.0
2023-01-08T11:17:27.670Z,36.2
2023-01-08T11:22:27.418Z,31.3
2023-01-08T11:27:27.463Z,29.2
2023-01-08T11:32:28.667Z,46.8
2023-01-08T11:37:27.430Z,26.6
2023-01-08T11:42:27.400Z,39.0
2023-01-08T11:47:27.438Z,30.6
2023-01-08T11:52:27.430Z,31.0
2023-01-08T11:57:28.269Z,30.5
2023-01-08T12:02:27.440Z,319.7
2023-01-08T12:07:28.241Z,59.0
2023-01-08T12:12:27.345Z,118.7
2023-01-08T12:17:28.221Z,45.1
2023-01-08T12:22:27.350Z,231.7
2023-01-08T12:27:48.569Z,52.9
2023-01-08T12:32:28.511Z,272.2
2023-01-08T12:37:27.414Z,47.2
2023-01-08T12:42:28.112Z,29.3
2023-01-08T12:47:28.299Z,140.8
2023-01-08T12:52:27.318Z,143.1
2023-01-08T12:57:27.337Z,37.6
2023-01-08T13:07:27.606Z,26.7
2023-01-08T13:12:27.497Z,25.4
2023-01-08T13:17:27.738Z,43.9
2023-01-08T13:22:27.476Z,32.6
2023-01-08T13:27:29.432Z,57.1
2023-01-08T13:32:27.419Z,135.4
2023-01-08T13:37:28.429Z,63.2
2023-01-08T13:42:29.789Z,58.6
2023-01-08T13:47:29.090Z,89.4
2023-01-08T13:52:31.523Z,42.9
2023-01-08T13:57:33.083Z,42.0
2023-01-08T14:07:28.933Z,168.6
2023-01-08T14:12:29.259Z,116.3
2023-01-08T14:17:28.194Z,146.9
2023-01-08T14:22:31.826Z,237.6
2023-01-08T14:27:34.695Z,205.8
2023-01-08T14:32:27.983Z,130.2
2023-01-08T14:37:28.046Z,115.8
2023-01-08T14:42:28.324Z,172.8
2023-01-08T14:47:28.123Z,264.1
2023-01-08T14:52:27.101Z,225.3
2023-01-08T14:57:28.076Z,225.3
2023-01-08T15:02:28.429Z,279.3
2023-01-08T15:07:28.289Z,212.0
2023-01-08T15:12:28.180Z,196.5
2023-01-08T15:17:28.434Z,262.1
2023-01-08T15:22:28.212Z,110.4
2023-01-08T15:27:28.116Z,152.8
2023-01-08T15:32:28.286Z,120.7
2023-01-08T15:37:28.110Z,244.2
2023-01-08T15:42:28.162Z,180.1
2023-01-08T15:47:28.146Z,183.9
2023-01-08T15:52:28.168Z,252.9
2023-01-08T15:57:28.462Z,134.8
2023-01-08T16:02:27.409Z,117.0
2023-01-08T16:07:28.554Z,96.4
2023-01-08T16:12:27.903Z,109.5
2023-01-08T16:17:27.227Z,117.1
2023-01-08T16:22:28.873Z,80.6
2023-01-08T16:27:27.359Z,114.8
2023-01-08T16:32:27.081Z,70.4
2023-01-08T16:37:29.374Z,67.5
2023-01-08T16:42:27.448Z,60.1
2023-01-08T16:47:28.158Z,56.5
2023-01-08T16:52:28.052Z,105.9
2023-01-08T16:57:27.920Z,141.2
2023-01-08T17:02:28.186Z,187.4
2023-01-08T17:07:27.915Z,347.8
2023-01-08T17:12:28.016Z,230.0
2023-01-08T17:17:27.764Z,243.4
2023-01-08T17:22:28.061Z,189.7
2023-01-08T17:27:29.105Z,200.3
2023-01-08T17:32:28.883Z,328.8
2023-01-08T17:37:27.740Z,235.5
2023-01-08T17:42:27.657Z,231.5
2023-01-08T17:47:28.494Z,269.9
2023-01-08T17:52:28.643Z,306.5
2023-01-08T17:57:27.792Z,290.6
2023-01-08T18:02:27.994Z,295.7
2023-01-08T18:07:27.642Z,322.3
2023-01-08T18:12:28.740Z,235.3
2023-01-08T18:17:27.718Z,215.3
2023-01-08T18:22:27.882Z,189.2
2023-01-08T18:27:27.967Z,196.7
2023-01-08T18:32:27.978Z,230.6
2023-01-08T18:37:27.744Z,229.9
2023-01-08T18:42:27.794Z,250.9
2023-01-08T18:47:27.750Z,245.8
2023-01-08T18:52:28.168Z,250.8
2023-01-08T18:57:28.306Z,196.2
2023-01-08T19:02:27.892Z,195.1
2023-01-08T19:07:27.554Z,158.8
2023-01-08T19:12:28.455Z,136.8
2023-01-08T19:17:33.737Z,115.6
2023-01-08T19:22:28.276Z,138.4
2023-01-08T19:27:28.763Z,130.1
2023-01-08T19:32:32.269Z,143.5
2023-01-08T19:37:28.013Z,137.7
2023-01-08T19:42:27.421Z,128.1
2023-01-08T19:47:28.635Z,123.2
2023-01-08T19:52:27.365Z,129.5
2023-01-08T19:57:27.596Z,215.9
2023-01-08T20:02:27.443Z,262.9
2023-01-08T20:07:27.509Z,141.7
2023-01-08T20:12:27.402Z,127.6
2023-01-08T20:17:28.338Z,114.7
2023-01-08T20:22:26.601Z,101.1
2023-01-08T20:27:26.671Z,97.5
2023-01-08T20:32:27.393Z,96.3
2023-01-08T20:37:29.508Z,101.3
2023-01-08T20:42:33.044Z,129.8
2023-01-08T20:47:27.386Z,186.6
2023-01-08T20:52:27.310Z,120.4
2023-01-08T20:57:27.449Z,114.0
2023-01-08T21:02:27.591Z,120.2
2023-01-08T21:07:27.622Z,186.7
2023-01-08T21:12:27.344Z,142.8
2023-01-08T21:17:27.389Z,136.2
2023-01-08T21:22:27.233Z,114.2
2023-01-08T21:27:28.015Z,113.9
2023-01-08T21:32:27.160Z,108.3
2023-01-08T21:37:26.387Z,104.2
2023-01-08T21:42:27.344Z,99.7
2023-01-08T21:47:27.155Z,187.3
2023-01-08T21:52:27.227Z,189.0
2023-01-08T21:57:27.288Z,279.8
2023-01-08T22:02:28.058Z,278.9
2023-01-08T22:07:27.077Z,194.0
2023-01-08T22:12:27.437Z,202.8
2023-01-08T22:17:27.320Z,232.3
2023-01-08T22:22:27.200Z,218.0
2023-01-08T22:27:27.305Z,204.3
2023-01-08T22:32:27.348Z,194.7
2023-01-08T22:37:27.209Z,336.4
2023-01-08T22:42:27.236Z,152.2
2023-01-08T22:47:27.154Z,119.5
2023-01-08T22:52:27.099Z,120.6
2023-01-08T22:57:27.274Z,161.6
2023-01-08T23:02:27.106Z,129.0
2023-01-08T23:07:28.310Z,122.7
2023-01-08T23:12:26.998Z,119.2
2023-01-08T23:17:26.578Z,150.2
2023-01-08T23:22:26.932Z,94.3
2023-01-08T23:27:26.952Z,162.5
2023-01-08T23:32:27.042Z,178.0
2023-01-08T23:37:27.008Z,139.7
2023-01-08T23:42:27.271Z,131.6
2023-01-08T23:47:26.897Z,112.7
2023-01-08T23:52:26.980Z,108.8
2023-01-08T23:57:26.402Z,101.7
